KBFD

Bradford Regional Airport

Bradford, Pennsylvania, USA
METAR KBFD 241153Z AUTO 12007KT 10SM OVC009 12/11 A3034 RMK AO2 CIG 005V011 SLP275 T01170111 10117 20067 53008
Observed Flight Rules
Sep-24 @ 11:53 UTC (19 minutes ago) Instrument Flight Rules
Wind Visibility Clouds
120° at 7 knots 10 miles
  • Overcast at 900' AGL
Temperatures Readings
Current 12°C / 54°F
Dewpoint 11°C / 52°F
Humidity 94%
Altimeter 30.34" Hg
Pressure 1027.5 hPa
Elevation 647
METAR KBFD 241153Z AUTO 12007KT 10SM OVC009 12/11 A3034 RMK AO2 CIG 005V011 SLP275 T01170111 10117 20067 53008
Observed Flight Rules
Sep-24 @ 11:53 UTC
(19 minutes ago)
IFR
Wind Visibility
120° at 7 knots 10 miles
Clouds
  • Overcast at 900' AGL
Temperature Dewpoint
12°C / 54°F 11°C / 52°F
Humidity Altimeter Pressure
94% 30.34" Hg 1027.5 hPa